Rechercher aéroport 
image banner adimage banner adimage banner ad
image banner ad

KHWD - Hayward Executive

Situé à Hayward, United States

ICAO - HWD, IATA - HWD

Données fournies par Airmate  

Information générale

Coordonnées: N37°39'32" W122°7'18"
Élévation : 52 feet MSL.
Variation magnétique : 15° East
Voir autres Aéroports à California

Données opérationnelles

Special qualification required
Heure actuelle UTC:
Heure actuelle locale:
Météo
METAR: KHWD 180754Z 25007KT 10SM OVC021 16/11 A3002 RMK AO2 SLP175 T01560111 402170144
Voir NOTAMs / SUP AIP / TFR affectant cet aéroport [VIEW]
Fréquences de communication: [VIEW]

Pistes:

Identifiant RWYQFULongueur (ft)Largeur (ft)SurfaceLDA (ft)
10R119°5694150ASPH
28L299°5694150ASPH
10L119°310775ASPH
28R299°310775ASPH

Coordonnées de l'aéroport

Adresse: Hayward United States

Autres services d'aviation

Écoles de pilotage

California Airways

California Airways

Flying Vikings, Inc.

Flying Vikings, Inc.
info@flyingvikings.com+1(510)670-4719

West Valley Flying Club

West Valley Flying Club
ashley@wvfc.org+1(510)781-0101

Hayward Flight

Hayward Flight
info@haywardflight.com+1(510)259-0824

Jato Aviation

Jato Aviation
ops@jatoaviation.com+1(650)654-5286

Vue satellite de KHWD